Time;durP1;ratioP1;P1;durP2;ratioP2;P2;SDS_P1;SDS_P2;PMS_P1;PMS_P2;Temp;Humidity;BMP_temperature;BMP_pressure;BME280_temperature;BME280_humidity;BME280_pressure;Samples;Min_cycle;Max_cycle;Signal;HPM_P1;HPM_P2
2021/11/19 00:01:46;;;;;;;11.00;9.90;;;7.70;99.90;;;;;;4989594;28;20165;-66
2021/11/19 00:04:11;;;;;;;10.30;9.20;;;7.90;99.90;;;;;;4989736;28;20181;-67
2021/11/19 00:06:38;;;;;;;10.63;9.53;;;7.90;99.90;;;;;;4990828;28;20231;-67
2021/11/19 00:09:05;;;;;;;11.07;9.90;;;7.90;99.90;;;;;;4990617;28;20223;-66
2021/11/19 00:11:34;;;;;;;11.47;10.37;;;7.70;99.90;;;;;;4989821;28;20644;-67
2021/11/19 00:14:01;;;;;;;11.17;10.00;;;7.40;99.90;;;;;;4990915;28;20184;-66
2021/11/19 00:16:27;;;;;;;11.27;10.17;;;7.30;99.90;;;;;;4990906;28;20169;-67
2021/11/19 00:18:56;;;;;;;11.60;10.43;;;7.20;99.90;;;;;;4991089;28;20200;-66
2021/11/19 00:21:25;;;;;;;11.47;10.33;;;7.20;99.90;;;;;;4991273;28;20205;-66
2021/11/19 00:23:51;;;;;;;12.20;11.00;;;7.20;99.90;;;;;;4991366;28;20173;-67
2021/11/19 00:26:19;;;;;;;14.17;11.03;;;7.30;99.90;;;;;;4991341;28;20216;-66
2021/11/19 00:28:45;;;;;;;11.50;10.30;;;7.20;99.90;;;;;;4991011;28;20197;-65
2021/11/19 00:31:12;;;;;;;12.43;11.13;;;7.20;99.90;;;;;;4991068;28;20169;-65
2021/11/19 00:33:38;;;;;;;11.77;10.50;;;7.20;99.90;;;;;;4990883;28;20192;-67
2021/11/19 00:36:07;;;;;;;12.43;11.13;;;7.20;99.90;;;;;;4991259;28;20182;-65
2021/11/19 00:38:34;;;;;;;11.97;10.77;;;7.20;99.90;;;;;;4995436;28;20208;-66
2021/11/19 00:41:03;;;;;;;11.80;10.60;;;7.10;99.90;;;;;;4994649;28;20207;-66
2021/11/19 00:43:29;;;;;;;12.03;10.83;;;7.20;99.90;;;;;;4994337;28;20169;-64
2021/11/19 00:45:55;;;;;;;13.13;11.20;;;7.30;99.90;;;;;;4994609;28;20532;-64
2021/11/19 00:48:24;;;;;;;11.90;10.67;;;7.30;99.90;;;;;;4994136;28;20248;-65
2021/11/19 00:50:58;;;;;;;11.83;10.63;;;7.40;99.90;;;;;;4994465;28;20259;-64
2021/11/19 00:53:24;;;;;;;12.40;10.77;;;7.50;99.90;;;;;;4993867;28;20667;-65
2021/11/19 00:55:50;;;;;;;11.97;10.70;;;7.50;99.90;;;;;;4994391;28;20180;-66
2021/11/19 00:58:17;;;;;;;12.50;11.17;;;7.50;99.90;;;;;;4994198;28;20196;-64
2021/11/19 01:00:49;;;;;;;13.03;11.73;;;7.40;99.90;;;;;;4994118;28;20283;-65
2021/11/19 01:03:15;;;;;;;12.40;11.10;;;7.40;99.90;;;;;;4993999;28;20252;-64
2021/11/19 01:05:41;;;;;;;15.30;11.50;;;7.30;99.90;;;;;;4994101;28;20252;-64
2021/11/19 01:08:07;;;;;;;12.40;11.20;;;7.20;99.90;;;;;;4994004;28;20736;-64
2021/11/19 01:10:35;;;;;;;13.57;12.17;;;7.10;99.90;;;;;;4993938;28;20220;-66
2021/11/19 01:13:01;;;;;;;13.53;12.13;;;7.10;99.90;;;;;;4993900;28;20620;-65
2021/11/19 01:15:41;;;;;;;14.03;12.53;;;7.00;99.90;;;;;;4993570;28;20201;-63
2021/11/19 01:18:09;;;;;;;13.20;11.80;;;6.90;99.90;;;;;;4993792;28;20181;-64
2021/11/19 01:20:45;;;;;;;13.23;11.60;;;7.00;99.90;;;;;;4993686;28;20289;-65
2021/11/19 01:23:12;;;;;;;14.70;11.90;;;7.20;99.90;;;;;;4993878;28;20177;-64
2021/11/19 01:25:43;;;;;;;14.37;12.13;;;7.20;99.90;;;;;;4993811;28;20596;-63
2021/11/19 01:28:09;;;;;;;13.60;11.50;;;8.10;99.90;;;;;;4993690;28;20177;-64
2021/11/19 01:30:43;;;;;;;14.63;13.03;;;7.20;99.90;;;;;;4993866;28;20189;-65
2021/11/19 01:33:10;;;;;;;15.80;12.23;;;7.20;99.90;;;;;;4993415;28;20172;-63
2021/11/19 01:35:36;;;;;;;13.60;12.07;;;7.20;99.90;;;;;;4993822;28;20173;-64
2021/11/19 01:38:03;;;;;;;13.67;12.23;;;7.20;99.90;;;;;;4993597;28;20184;-65
2021/11/19 01:40:34;;;;;;;12.80;11.47;;;7.20;99.90;;;;;;4993130;28;20283;-63
2021/11/19 01:43:03;;;;;;;13.57;12.20;;;7.30;99.90;;;;;;4992779;28;20412;-64
2021/11/19 01:45:34;;;;;;;13.10;11.70;;;7.30;99.90;;;;;;4994257;28;20173;-64
2021/11/19 01:48:00;;;;;;;14.33;12.83;;;7.30;99.90;;;;;;4992209;28;20177;-68
2021/11/19 01:50:34;;;;;;;16.27;12.67;;;7.50;99.90;;;;;;4993356;28;20541;-66
2021/11/19 01:53:21;;;;;;;13.60;12.20;;;7.60;99.90;;;;;;4993045;28;20264;-66
2021/11/19 01:56:15;;;;;;;14.17;12.67;;;7.60;99.90;;;;;;4993313;28;20220;-65
2021/11/19 01:58:56;;;;;;;14.00;12.47;;;7.60;99.90;;;;;;4993212;28;20199;-64
2021/11/19 02:01:29;;;;;;;14.17;12.67;;;7.70;99.90;;;;;;4993032;28;20192;-67
2021/11/19 02:04:00;;;;;;;14.33;12.83;;;7.60;99.90;;;;;;4993067;28;20192;-65
2021/11/19 02:06:30;;;;;;;13.87;12.43;;;7.60;99.90;;;;;;4993397;28;20165;-64
2021/11/19 02:08:57;;;;;;;14.33;12.83;;;7.70;99.90;;;;;;4993182;28;20232;-65
2021/11/19 02:11:48;;;;;;;15.00;13.40;;;7.70;99.90;;;;;;4993266;28;20177;-64
2021/11/19 02:14:19;;;;;;;17.37;14.00;;;7.80;99.90;;;;;;4993101;28;20195;-64
2021/11/19 02:16:50;;;;;;;14.33;12.63;;;7.80;99.90;;;;;;4993306;28;20188;-65
2021/11/19 02:19:25;;;;;;;14.73;13.23;;;7.60;99.90;;;;;;4993221;28;20204;-64
2021/11/19 02:21:58;;;;;;;15.00;12.93;;;7.60;99.90;;;;;;4992731;28;20177;-65
2021/11/19 02:24:32;;;;;;;15.37;13.67;;;7.60;99.90;;;;;;4993133;28;20683;-65
2021/11/19 02:27:06;;;;;;;14.60;13.07;;;7.70;99.90;;;;;;4993173;28;20170;-65
2021/11/19 02:29:38;;;;;;;14.93;13.40;;;7.70;99.90;;;;;;4992546;28;20675;-65
2021/11/19 02:32:12;;;;;;;15.60;13.90;;;7.50;99.90;;;;;;4991704;28;20181;-65
2021/11/19 02:34:38;;;;;;;15.50;13.43;;;7.30;99.90;;;;;;4991935;28;20180;-66
2021/11/19 02:37:08;;;;;;;15.00;13.50;;;7.20;99.90;;;;;;4991718;28;20316;-63
2021/11/19 02:39:42;;;;;;;17.33;14.17;;;7.10;99.90;;;;;;4991589;28;20204;-64
2021/11/19 02:42:18;;;;;;;16.87;15.07;;;6.90;99.90;;;;;;4991649;28;20652;-65
2021/11/19 02:44:45;;;;;;;16.60;14.07;;;6.80;99.90;;;;;;4990314;28;20181;-64
2021/11/19 02:47:17;;;;;;;16.27;14.53;;;6.60;99.90;;;;;;4991770;28;20185;-67
2021/11/19 02:49:44;;;;;;;16.40;14.50;;;6.60;99.90;;;;;;4991210;28;20615;-67
2021/11/19 02:52:23;;;;;;;16.53;14.77;;;6.90;99.90;;;;;;4991590;28;20525;-65
2021/11/19 02:54:50;;;;;;;16.20;14.50;;;7.10;99.90;;;;;;4991107;28;20169;-68
2021/11/19 02:57:17;;;;;;;16.60;14.90;;;7.20;99.90;;;;;;4991701;28;20273;-66
2021/11/19 02:59:44;;;;;;;16.97;15.17;;;7.30;99.90;;;;;;4989656;28;20212;-66
2021/11/19 03:02:14;;;;;;;17.00;15.20;;;7.20;99.90;;;;;;4990461;28;20172;-66
2021/11/19 03:07:18;;;;;;;16.63;14.27;;;7.00;99.90;;;;;;5014384;23;20646;-52
2021/11/19 03:09:46;;;;;;;17.13;15.33;;;7.00;99.90;;;;;;4964503;28;1152461;-50
2021/11/19 03:12:15;;;;;;;17.53;15.50;;;7.00;99.90;;;;;;5006997;28;20172;-49
2021/11/19 03:14:43;;;;;;;17.13;15.10;;;7.00;99.90;;;;;;5008869;28;20621;-50
2021/11/19 03:17:10;;;;;;;17.33;15.50;;;6.80;99.90;;;;;;4992450;28;20369;-51
2021/11/19 03:19:36;;;;;;;17.43;15.53;;;6.80;99.90;;;;;;5010412;23;20201;-58
2021/11/19 03:22:02;;;;;;;16.67;14.80;;;6.90;99.90;;;;;;5002488;28;20191;-55
2021/11/19 03:24:28;;;;;;;19.23;16.07;;;7.00;99.90;;;;;;5006504;28;20181;-56
2021/11/19 03:26:55;;;;;;;15.57;13.97;;;7.20;99.90;;;;;;5010900;28;20236;-55
2021/11/19 03:29:22;;;;;;;18.30;15.20;;;7.30;99.90;;;;;;5010722;28;20230;-56
2021/11/19 03:31:48;;;;;;;17.50;14.93;;;7.20;99.90;;;;;;4992124;28;20212;-56
2021/11/19 03:34:16;;;;;;;17.50;15.60;;;7.40;99.90;;;;;;4991799;28;20823;-53
2021/11/19 03:36:46;;;;;;;17.57;15.63;;;7.40;99.90;;;;;;4992018;28;20647;-54
2021/11/19 03:39:14;;;;;;;16.40;14.70;;;7.30;99.90;;;;;;4988325;28;20566;-54
2021/11/19 03:41:42;;;;;;;16.53;14.80;;;7.20;99.90;;;;;;4991932;28;20201;-58
2021/11/19 03:44:18;;;;;;;17.53;15.40;;;7.40;99.90;;;;;;4991943;28;20174;-56
2021/11/19 03:46:55;;;;;;;18.40;16.40;;;7.40;99.90;;;;;;4992114;28;20184;-58
2021/11/19 03:49:21;;;;;;;18.10;15.60;;;7.60;99.90;;;;;;4992298;28;20171;-55
2021/11/19 03:52:01;;;;;;;18.10;15.80;;;7.30;99.90;;;;;;4992554;28;20520;-57
2021/11/19 03:54:29;;;;;;;19.17;17.17;;;7.20;99.90;;;;;;4988764;28;20188;-54
2021/11/19 03:56:56;;;;;;;18.77;16.77;;;6.80;99.90;;;;;;4990584;28;20232;-55
2021/11/19 03:59:21;;;;;;;18.60;16.63;;;6.60;99.90;;;;;;4991924;28;20169;-58
2021/11/19 04:01:49;;;;;;;19.23;16.50;;;6.60;99.90;;;;;;4992439;28;20166;-55
2021/11/19 04:04:18;;;;;;;19.30;17.20;;;6.60;99.90;;;;;;4992131;28;20173;-56
2021/11/19 04:06:44;;;;;;;17.50;15.60;;;6.50;99.90;;;;;;4992001;28;20169;-59
2021/11/19 04:09:10;;;;;;;20.00;17.33;;;6.70;99.90;;;;;;4992198;28;20520;-58
2021/11/19 04:11:36;;;;;;;19.60;17.60;;;6.70;99.90;;;;;;4993266;28;20221;-57
2021/11/19 04:14:03;;;;;;;19.70;16.63;;;6.60;99.90;;;;;;4996252;28;20169;-55
2021/11/19 04:16:36;;;;;;;20.00;17.63;;;6.50;99.90;;;;;;4995980;28;20631;-57
2021/11/19 04:19:04;;;;;;;19.23;16.53;;;6.30;99.90;;;;;;4995952;28;20207;-59
2021/11/19 04:21:30;;;;;;;20.67;18.50;;;6.30;99.90;;;;;;4996083;28;20216;-58
2021/11/19 04:23:59;;;;;;;19.47;16.93;;;6.30;99.90;;;;;;4996046;28;20536;-57
2021/11/19 04:26:26;;;;;;;19.13;17.13;;;6.30;99.90;;;;;;4995728;28;20176;-56
2021/11/19 04:28:53;;;;;;;19.53;16.63;;;6.30;99.90;;;;;;4994009;28;20208;-56
2021/11/19 04:31:19;;;;;;;19.67;17.00;;;6.40;99.90;;;;;;4995825;28;20255;-53
2021/11/19 04:33:47;;;;;;;24.77;18.70;;;6.50;99.90;;;;;;4995958;28;20539;-51
2021/11/19 04:36:12;;;;;;;19.33;16.93;;;6.50;99.90;;;;;;4995620;28;20173;-57
2021/11/19 04:38:38;;;;;;;19.20;17.10;;;6.50;99.90;;;;;;4995792;28;20181;-52
2021/11/19 04:41:05;;;;;;;19.13;16.30;;;6.40;99.90;;;;;;4995631;28;20236;-52
2021/11/19 04:43:31;;;;;;;19.00;16.87;;;6.40;99.90;;;;;;4995727;28;20169;-51
2021/11/19 04:45:57;;;;;;;19.10;17.10;;;6.40;99.90;;;;;;4995149;28;20252;-53
2021/11/19 04:48:26;;;;;;;18.73;16.73;;;6.30;99.90;;;;;;4995756;28;20391;-55
2021/11/19 04:50:53;;;;;;;19.13;16.83;;;6.20;99.90;;;;;;4994978;28;20352;-51
2021/11/19 04:53:21;;;;;;;20.60;17.43;;;6.20;99.90;;;;;;4995651;28;20173;-52
2021/11/19 04:55:47;;;;;;;18.80;16.67;;;6.20;99.90;;;;;;4995182;28;20673;-51
2021/11/19 04:58:13;;;;;;;20.67;18.17;;;6.20;99.90;;;;;;4995263;28;20255;-55
2021/11/19 05:00:43;;;;;;;19.37;17.13;;;6.20;99.90;;;;;;4995167;28;20211;-53
2021/11/19 05:03:10;;;;;;;19.77;16.97;;;6.30;99.90;;;;;;4995370;28;20166;-53
2021/11/19 05:05:37;;;;;;;20.90;17.03;;;6.30;99.90;;;;;;4994863;28;20259;-52
2021/11/19 05:08:04;;;;;;;17.83;15.93;;;6.30;99.90;;;;;;4995001;28;20516;-53
2021/11/19 05:10:31;;;;;;;19.50;17.40;;;6.50;99.90;;;;;;4995449;28;20197;-52
2021/11/19 05:12:58;;;;;;;19.43;16.53;;;6.70;99.90;;;;;;4995151;28;20587;-55
2021/11/19 05:15:25;;;;;;;20.67;16.50;;;6.90;99.90;;;;;;4995075;28;20205;-53
2021/11/19 05:17:51;;;;;;;17.67;15.77;;;7.00;99.90;;;;;;4994789;28;20268;-53
2021/11/19 05:20:19;;;;;;;18.60;15.87;;;7.30;99.90;;;;;;4994707;28;20292;-52
2021/11/19 05:22:44;;;;;;;18.17;15.80;;;7.30;99.90;;;;;;4994704;28;20267;-53
2021/11/19 05:25:13;;;;;;;17.73;15.83;;;7.40;99.90;;;;;;4994445;28;20256;-54
2021/11/19 05:27:39;;;;;;;19.30;16.50;;;7.20;99.90;;;;;;4995435;28;20667;-56
2021/11/19 05:30:07;;;;;;;17.67;15.77;;;7.20;99.90;;;;;;4994624;28;20228;-54
2021/11/19 05:32:33;;;;;;;18.90;16.50;;;7.10;99.90;;;;;;4994622;28;20571;-52
2021/11/19 05:34:58;;;;;;;18.73;16.73;;;7.00;99.90;;;;;;4994112;28;20180;-56
2021/11/19 05:37:25;;;;;;;19.30;17.03;;;7.10;99.90;;;;;;4994607;28;20184;-52
2021/11/19 05:39:50;;;;;;;19.33;16.40;;;7.10;99.90;;;;;;4994013;28;20200;-53
2021/11/19 05:42:16;;;;;;;17.73;15.83;;;6.90;99.90;;;;;;4994792;28;20166;-51
2021/11/19 05:44:43;;;;;;;20.70;16.87;;;6.80;99.90;;;;;;4993868;28;20760;-55
2021/11/19 05:47:10;;;;;;;18.27;16.37;;;6.60;99.90;;;;;;4994071;28;20643;-53
2021/11/19 05:49:37;;;;;;;17.23;15.40;;;6.60;99.90;;;;;;4993855;28;20193;-56
2021/11/19 05:52:05;;;;;;;18.60;16.33;;;6.70;99.90;;;;;;4994153;28;20188;-52
2021/11/19 05:54:33;;;;;;;18.47;15.73;;;6.70;99.90;;;;;;4994485;28;20575;-49
2021/11/19 05:57:01;;;;;;;19.80;16.47;;;6.80;99.90;;;;;;4994094;28;20181;-55
2021/11/19 05:59:27;;;;;;;20.60;16.20;;;6.90;99.90;;;;;;4994329;28;20675;-54
2021/11/19 06:01:53;;;;;;;19.37;16.50;;;6.70;99.90;;;;;;4993973;28;20265;-57
2021/11/19 06:04:19;;;;;;;17.43;15.43;;;6.60;99.90;;;;;;4994412;28;20173;-55
2021/11/19 06:06:45;;;;;;;19.77;15.40;;;6.50;99.90;;;;;;4993465;28;20705;-56
2021/11/19 06:09:16;;;;;;;20.57;17.67;;;6.40;99.90;;;;;;4994192;28;20172;-52
2021/11/19 06:11:50;;;;;;;18.50;15.83;;;6.40;99.90;;;;;;4993595;28;20352;-51
2021/11/19 06:14:20;;;;;;;19.83;16.53;;;6.30;99.90;;;;;;4992813;28;20169;-55
2021/11/19 06:16:50;;;;;;;19.30;15.77;;;6.30;99.90;;;;;;4992512;28;20173;-55
2021/11/19 06:19:20;;;;;;;19.70;15.83;;;6.40;99.90;;;;;;4991700;28;20173;-56
2021/11/19 06:21:53;;;;;;;19.23;16.00;;;6.40;99.90;;;;;;4993378;28;20196;-56
2021/11/19 06:24:32;;;;;;;18.40;15.83;;;8.00;99.90;;;;;;4993833;28;20169;-59
2021/11/19 06:26:59;;;;;;;18.07;15.57;;;6.40;99.90;;;;;;4993202;28;20177;-57
2021/11/19 06:29:24;;;;;;;20.87;15.37;;;6.40;99.90;;;;;;4992929;28;20176;-54
2021/11/19 06:31:53;;;;;;;19.80;16.53;;;6.50;99.90;;;;;;4993682;28;20536;-53
2021/11/19 06:34:19;;;;;;;19.03;16.23;;;6.40;99.90;;;;;;4992861;28;20184;-53
2021/11/19 06:36:45;;;;;;;23.00;18.20;;;6.20;99.90;;;;;;4993231;28;20169;-57
2021/11/19 06:39:12;;;;;;;18.23;16.27;;;6.10;99.90;;;;;;4993109;28;20169;-57
2021/11/19 06:41:38;;;;;;;21.40;16.30;;;6.10;99.90;;;;;;4992582;28;20209;-54
2021/11/19 06:44:04;;;;;;;21.90;16.57;;;6.10;99.90;;;;;;4993305;28;20224;-56
2021/11/19 06:46:30;;;;;;;20.97;17.23;;;6.10;99.90;;;;;;4992535;28;20284;-59
2021/11/19 06:48:56;;;;;;;19.53;16.17;;;6.20;99.90;;;;;;4992668;28;20250;-57
2021/11/19 06:51:22;;;;;;;18.27;16.20;;;6.10;99.90;;;;;;4993042;28;20188;-61
2021/11/19 06:53:49;;;;;;;19.37;16.43;;;6.10;99.90;;;;;;4993248;28;20173;-53
2021/11/19 06:56:16;;;;;;;21.57;17.03;;;6.20;99.90;;;;;;4992780;28;20694;-56
2021/11/19 06:58:43;;;;;;;19.93;16.10;;;6.20;99.90;;;;;;4993332;28;20213;-59
2021/11/19 07:01:08;;;;;;;19.17;17.07;;;6.30;99.90;;;;;;4992720;28;20205;-60
2021/11/19 07:03:34;;;;;;;18.10;15.73;;;6.40;99.90;;;;;;4992860;28;20227;-58
2021/11/19 07:06:00;;;;;;;20.60;16.80;;;6.40;99.90;;;;;;4992016;28;20208;-55
2021/11/19 07:08:27;;;;;;;18.00;16.07;;;6.60;99.90;;;;;;4993076;28;20166;-58
2021/11/19 07:10:57;;;;;;;20.80;16.50;;;6.70;99.90;;;;;;4992526;28;20193;-54
2021/11/19 07:13:23;;;;;;;17.13;15.27;;;6.60;99.90;;;;;;4992878;28;20188;-57
2021/11/19 07:15:49;;;;;;;19.37;15.90;;;6.70;99.90;;;;;;4992470;28;20177;-59
2021/11/19 07:18:15;;;;;;;18.03;15.80;;;6.60;99.90;;;;;;4992750;28;20674;-56
2021/11/19 07:20:41;;;;;;;18.03;15.43;;;6.60;99.90;;;;;;4992463;28;20217;-58
2021/11/19 07:23:09;;;;;;;18.67;16.47;;;6.60;99.90;;;;;;4992932;28;20587;-54
2021/11/19 07:25:36;;;;;;;19.33;16.70;;;7.90;99.90;;;;;;4992745;28;20181;-57
2021/11/19 07:28:02;;;;;;;18.53;15.50;;;6.70;99.90;;;;;;4992722;28;20165;-57
2021/11/19 07:30:34;;;;;;;17.70;15.40;;;6.90;99.90;;;;;;4992700;28;20222;-60
2021/11/19 07:33:00;;;;;;;19.70;16.03;;;7.10;99.90;;;;;;4992181;28;20184;-58
2021/11/19 07:35:26;;;;;;;19.03;15.60;;;7.10;99.90;;;;;;4992185;28;20702;-55
2021/11/19 07:37:52;;;;;;;19.07;15.80;;;7.10;99.90;;;;;;4992477;28;20227;-56
2021/11/19 07:40:24;;;;;;;18.80;15.57;;;7.00;99.90;;;;;;4992577;28;20603;-55
2021/11/19 07:42:50;;;;;;;20.50;15.40;;;6.90;99.90;;;;;;4992496;28;20162;-56
2021/11/19 07:45:17;;;;;;;19.87;15.53;;;7.00;99.90;;;;;;4992224;28;20177;-58
2021/11/19 07:47:43;;;;;;;19.90;15.87;;;7.60;99.90;;;;;;4992238;28;20786;-58
2021/11/19 07:50:12;;;;;;;19.27;15.87;;;6.70;99.90;;;;;;4992025;28;20224;-58
2021/11/19 07:52:37;;;;;;;20.60;17.20;;;6.60;99.90;;;;;;4989795;28;20180;-59
2021/11/19 07:55:05;;;;;;;18.93;15.90;;;6.70;99.90;;;;;;4990349;28;20316;-51
2021/11/19 07:57:30;;;;;;;20.40;17.33;;;6.80;99.90;;;;;;4992420;28;20173;-52
2021/11/19 07:59:56;;;;;;;19.87;17.40;;;6.80;99.90;;;;;;4991745;28;20203;-55
2021/11/19 08:02:21;;;;;;;20.07;16.47;;;6.90;99.90;;;;;;4992768;28;20183;-49
2021/11/19 08:04:47;;;;;;;20.57;17.33;;;6.90;99.90;;;;;;4991861;28;20228;-56
2021/11/19 08:07:13;;;;;;;22.43;17.87;;;6.80;99.90;;;;;;4992029;28;20177;-54
2021/11/19 08:09:38;;;;;;;18.60;16.60;;;6.70;99.90;;;;;;4992098;28;20675;-56
2021/11/19 08:12:04;;;;;;;26.50;23.33;;;6.50;99.90;;;;;;4991902;28;20185;-53
2021/11/19 08:14:30;;;;;;;24.27;17.97;;;6.40;99.90;;;;;;4991139;28;20177;-51
2021/11/19 08:17:03;;;;;;;22.10;18.10;;;6.40;99.90;;;;;;4991671;28;20181;-55
2021/11/19 08:19:44;;;;;;;24.67;17.83;;;6.30;99.90;;;;;;4991607;28;20173;-56
2021/11/19 08:22:11;;;;;;;21.43;17.53;;;6.30;99.90;;;;;;4992277;28;20172;-51
2021/11/19 08:24:37;;;;;;;21.50;18.43;;;6.50;99.90;;;;;;4992257;28;20181;-55
2021/11/19 08:27:09;;;;;;;22.03;18.63;;;6.50;99.90;;;;;;4991434;28;20654;-52
2021/11/19 08:29:37;;;;;;;22.57;18.57;;;6.30;99.90;;;;;;4999527;28;20200;-53
2021/11/19 08:32:05;;;;;;;21.57;18.33;;;6.30;99.90;;;;;;4992370;28;20260;-52
2021/11/19 08:34:31;;;;;;;21.63;17.63;;;6.20;99.90;;;;;;4996627;28;20187;-54
2021/11/19 08:36:57;;;;;;;24.57;18.60;;;6.20;99.90;;;;;;4993825;28;20181;-55
2021/11/19 08:39:25;;;;;;;22.47;17.97;;;6.30;99.90;;;;;;4991204;28;20173;-55
2021/11/19 08:41:52;;;;;;;21.57;18.57;;;6.20;99.90;;;;;;4990258;28;20239;-55
2021/11/19 08:44:18;;;;;;;22.27;18.53;;;6.50;99.90;;;;;;4991741;28;20248;-54
2021/11/19 08:46:47;;;;;;;21.30;18.63;;;6.50;99.90;;;;;;4991159;28;20197;-57
2021/11/19 08:49:18;;;;;;;21.80;17.60;;;7.70;99.90;;;;;;4991924;28;20185;-58
2021/11/19 08:51:45;;;;;;;21.40;17.27;;;6.80;99.90;;;;;;4991644;28;20260;-56
2021/11/19 08:54:11;;;;;;;21.13;17.23;;;6.90;99.90;;;;;;4992039;28;20199;-55
2021/11/19 08:56:40;;;;;;;22.97;18.10;;;6.80;99.90;;;;;;4991332;28;20174;-54
2021/11/19 08:59:08;;;;;;;22.23;17.23;;;6.70;99.90;;;;;;4994675;28;20173;-53
2021/11/19 09:01:35;;;;;;;25.10;17.87;;;6.60;99.90;;;;;;4995037;28;20212;-57
2021/11/19 09:04:02;;;;;;;22.90;17.93;;;6.50;99.90;;;;;;4993616;28;20203;-57
2021/11/19 09:06:27;;;;;;;21.03;17.73;;;6.50;99.90;;;;;;4993551;28;20196;-58
2021/11/19 09:08:53;;;;;;;22.20;17.87;;;6.40;99.90;;;;;;5001584;28;20270;-53
2021/11/19 09:11:23;;;;;;;24.30;18.70;;;6.70;99.90;;;;;;4988352;28;20208;-57
2021/11/19 09:13:51;;;;;;;22.87;18.83;;;6.70;99.90;;;;;;4987330;28;20651;-52
2021/11/19 09:16:20;;;;;;;23.70;18.67;;;6.50;99.90;;;;;;4992025;28;20180;-55
2021/11/19 09:19:19;;;;;;;24.40;19.00;;;6.40;99.90;;;;;;4994949;28;20177;-57
2021/11/19 09:21:48;;;;;;;23.83;18.47;;;6.40;99.90;;;;;;4993549;28;20671;-58
2021/11/19 09:24:20;;;;;;;23.17;18.00;;;6.30;99.90;;;;;;4994942;28;20263;-52
2021/11/19 09:26:56;;;;;;;21.80;18.40;;;6.20;99.90;;;;;;4994774;28;20185;-57
2021/11/19 09:29:36;;;;;;;22.30;18.27;;;6.20;99.90;;;;;;4985692;28;20225;-57
2021/11/19 09:32:04;;;;;;;22.47;18.77;;;6.30;99.90;;;;;;4992593;28;20189;-52
2021/11/19 09:34:31;;;;;;;25.30;19.23;;;6.50;99.90;;;;;;4994210;28;20174;-49
2021/11/19 09:36:58;;;;;;;27.03;18.97;;;6.60;99.90;;;;;;4994288;28;20647;-49
2021/11/19 09:39:26;;;;;;;23.23;18.10;;;6.70;99.90;;;;;;4994402;28;20178;-53
2021/11/19 09:41:52;;;;;;;23.67;17.87;;;6.80;99.90;;;;;;4994699;28;20192;-53
2021/11/19 09:44:52;;;;;;;21.90;17.70;;;6.90;99.90;;;;;;4993620;28;20173;-51
2021/11/19 09:47:33;;;;;;;21.40;17.73;;;7.00;99.90;;;;;;4990584;28;20177;-53
2021/11/19 09:50:17;;;;;;;23.03;18.93;;;7.00;99.90;;;;;;4975082;28;20194;-50
2021/11/19 09:53:20;;;;;;;20.83;17.73;;;7.10;99.90;;;;;;4974681;28;20177;-56
2021/11/19 09:56:23;;;;;;;28.43;22.47;;;7.10;99.90;;;;;;4974758;28;20544;-51
2021/11/19 09:59:26;;;;;;;22.17;17.63;;;7.10;99.90;;;;;;4974630;28;20181;-55
2021/11/19 10:02:06;;;;;;;23.23;17.93;;;7.20;99.90;;;;;;4975069;28;20182;-53
2021/11/19 10:04:53;;;;;;;22.00;17.47;;;7.20;99.90;;;;;;4974482;28;20178;-51
2021/11/19 10:07:46;;;;;;;19.33;15.97;;;7.10;99.90;;;;;;4989715;28;20220;-51
2021/11/19 10:10:21;;;;;;;21.73;17.47;;;7.10;99.90;;;;;;4992291;28;20201;-51
2021/11/19 10:12:52;;;;;;;21.17;16.43;;;7.20;99.90;;;;;;4993646;28;20208;-53
2021/11/19 10:15:34;;;;;;;18.77;16.73;;;7.30;99.90;;;;;;4993049;28;20177;-56
2021/11/19 10:18:30;;;;;;;19.37;16.70;;;7.30;99.90;;;;;;4993874;28;20180;-54
2021/11/19 10:21:07;;;;;;;22.10;17.33;;;7.20;99.90;;;;;;4991003;28;20741;-50
2021/11/19 10:23:47;;;;;;;23.00;17.73;;;7.10;99.90;;;;;;4993967;28;20184;-56
2021/11/19 10:26:32;;;;;;;20.33;16.23;;;7.10;99.90;;;;;;4993556;28;20177;-51
2021/11/19 10:29:23;;;;;;;19.53;15.87;;;7.30;99.90;;;;;;4993038;28;20168;-50
2021/11/19 10:31:51;;;;;;;20.27;16.23;;;7.30;99.90;;;;;;4993754;28;20239;-54
2021/11/19 10:34:47;;;;;;;19.73;16.30;;;7.40;99.90;;;;;;5009008;23;20246;-65
2021/11/19 10:37:35;;;;;;;20.53;16.50;;;7.60;99.90;;;;;;4990760;28;20265;-65
2021/11/19 10:40:15;;;;;;;21.23;16.70;;;7.50;99.90;;;;;;4997561;28;20192;-64
2021/11/19 10:42:40;;;;;;;21.97;17.60;;;7.40;99.90;;;;;;4996991;28;20550;-63
2021/11/19 10:45:27;;;;;;;25.07;17.53;;;7.30;99.90;;;;;;4982885;28;20193;-64
2021/11/19 10:48:11;;;;;;;23.33;16.67;;;7.30;99.90;;;;;;4977352;28;20174;-64
2021/11/19 10:51:13;;;;;;;20.00;15.97;;;7.40;99.90;;;;;;4976937;28;20655;-65
2021/11/19 10:54:00;;;;;;;21.83;16.90;;;7.40;99.90;;;;;;4977656;28;20197;-65
2021/11/19 10:56:37;;;;;;;21.37;15.80;;;7.60;99.90;;;;;;4976821;28;20176;-65
2021/11/19 10:59:32;;;;;;;21.03;16.17;;;7.50;99.90;;;;;;4976513;28;20181;-65
2021/11/19 11:02:17;;;;;;;23.53;17.50;;;7.50;99.90;;;;;;4976173;28;20205;-64
2021/11/19 11:04:56;;;;;;;21.30;16.63;;;7.80;99.90;;;;;;4974391;28;20190;-65
2021/11/19 11:07:30;;;;;;;22.07;18.03;;;8.00;99.90;;;;;;4974824;28;20224;-64
2021/11/19 11:09:59;;;;;;;20.67;16.30;;;8.00;99.90;;;;;;4970788;28;20200;-65
2021/11/19 11:12:46;;;;;;;21.77;16.57;;;8.10;99.90;;;;;;4975353;28;20182;-63
2021/11/19 11:15:15;;;;;;;22.30;17.50;;;8.20;99.90;;;;;;4974139;28;20207;-64
2021/11/19 11:18:11;;;;;;;27.23;17.53;;;7.90;99.90;;;;;;4975011;28;20265;-64
2021/11/19 11:20:42;;;;;;;23.00;17.40;;;8.00;99.90;;;;;;4975033;28;20209;-64
2021/11/19 11:23:33;;;;;;;23.87;17.87;;;8.10;99.90;;;;;;4974650;28;20829;-65
2021/11/19 11:26:08;;;;;;;23.13;17.73;;;7.90;99.90;;;;;;4975160;28;20221;-62
2021/11/19 11:28:48;;;;;;;23.07;18.63;;;7.70;99.90;;;;;;4973084;28;20170;-62
2021/11/19 11:31:46;;;;;;;23.87;18.03;;;7.70;99.90;;;;;;4974798;28;20173;-63
2021/11/19 11:34:27;;;;;;;40.73;24.73;;;7.80;99.90;;;;;;4974009;28;20262;-63
2021/11/19 11:37:04;;;;;;;21.80;17.00;;;7.70;99.90;;;;;;4973587;28;20600;-63
2021/11/19 11:39:38;;;;;;;26.33;18.53;;;7.80;99.90;;;;;;4973242;28;20193;-63
2021/11/19 11:42:22;;;;;;;23.03;18.20;;;7.80;99.90;;;;;;4973081;28;20227;-63
2021/11/19 11:44:50;;;;;;;22.37;16.90;;;7.80;99.90;;;;;;4971575;28;20202;-64
2021/11/19 11:47:33;;;;;;;25.73;18.53;;;8.10;99.90;;;;;;4971695;28;20182;-61
2021/11/19 11:50:24;;;;;;;26.17;17.93;;;8.10;99.90;;;;;;4972821;28;20192;-64
2021/11/19 11:53:12;;;;;;;24.43;18.10;;;8.00;99.90;;;;;;4972101;28;20189;-64
2021/11/19 11:55:40;;;;;;;22.27;17.33;;;8.10;99.90;;;;;;4971884;28;20225;-66
2021/11/19 11:58:42;;;;;;;24.40;18.20;;;8.10;99.90;;;;;;4971334;28;20177;-65
2021/11/19 12:01:23;;;;;;;25.47;17.40;;;8.40;99.90;;;;;;4972248;28;20197;-64
2021/11/19 12:04:01;;;;;;;22.90;17.30;;;8.70;99.90;;;;;;4971554;28;20193;-57
2021/11/19 12:06:51;;;;;;;23.47;17.17;;;9.00;99.90;;;;;;4969085;28;20541;-61
2021/11/19 12:09:36;;;;;;;21.63;16.30;;;8.60;99.90;;;;;;4963235;28;20235;-61
2021/11/19 12:12:18;;;;;;;20.63;15.97;;;9.40;99.90;;;;;;4961131;28;20244;-62
2021/11/19 12:14:56;;;;;;;22.23;16.20;;;9.50;99.90;;;;;;4960034;28;20580;-63
2021/11/19 12:17:40;;;;;;;21.97;16.57;;;9.70;99.90;;;;;;4966042;28;20234;-64
2021/11/19 12:20:15;;;;;;;26.73;17.63;;;9.80;99.90;;;;;;4960895;28;20194;-62
2021/11/19 12:22:46;;;;;;;20.27;17.07;;;9.80;99.90;;;;;;4964310;28;20528;-64
2021/11/19 12:25:39;;;;;;;22.83;17.40;;;9.70;99.90;;;;;;4967824;28;20229;-64
2021/11/19 12:28:17;;;;;;;21.70;17.40;;;9.70;99.90;;;;;;4950160;29;20166;-64
2021/11/19 12:31:08;;;;;;;22.30;16.30;;;9.70;99.90;;;;;;4950615;29;20182;-63
2021/11/19 12:33:42;;;;;;;24.30;16.97;;;9.60;99.90;;;;;;4952878;28;20171;-63
2021/11/19 12:36:32;;;;;;;20.17;16.10;;;9.60;99.90;;;;;;4954592;28;20186;-62
2021/11/19 12:39:00;;;;;;;23.73;17.40;;;9.70;99.90;;;;;;4954571;29;20213;-63
2021/11/19 12:41:29;;;;;;;20.10;16.37;;;9.50;99.90;;;;;;4955633;29;20205;-63
2021/11/19 12:44:31;;;;;;;18.83;15.87;;;9.60;99.90;;;;;;4956306;29;20187;-63
2021/11/19 12:47:20;;;;;;;23.03;17.07;;;9.60;99.90;;;;;;4956492;29;20177;-62
2021/11/19 12:50:04;;;;;;;27.63;17.80;;;9.80;99.90;;;;;;4955830;29;20186;-64
2021/11/19 12:52:45;;;;;;;23.03;17.30;;;9.80;99.90;;;;;;4973596;28;20182;-63
2021/11/19 12:55:26;;;;;;;23.93;17.57;;;9.90;99.90;;;;;;4975519;28;20205;-63
2021/11/19 12:58:06;;;;;;;24.23;17.27;;;10.00;99.90;;;;;;4975965;28;20178;-63
2021/11/19 13:00:53;;;;;;;22.60;17.33;;;10.10;99.90;;;;;;4975771;28;20190;-63
2021/11/19 13:03:29;;;;;;;22.57;17.87;;;10.20;99.90;;;;;;4976423;28;20174;-61